Latest Weather Observations for Tennant Creek

IDD60801

Issued at 10:51 am CST Thursday 22 February 2024 (issued every 10 minutes, with the page automatically refreshed every 10 minutes)

About weather observations | Map of weather stations | Latest weather observations for NT | Other Formats
Station Details ID: 015135 Name: TENNANT CREEK AIRPORT Lat: -19.64 Lon: 134.18 Height: 375.7 m
Data from the previous 72 hours. | See also: Recent months at Tennant Creek
Date/Time
CST
Temp
°C
App
Temp
°C
Dew
Point
°C
Rel
Hum
%
Delta-T
°C
Wind Press
QNH
hPa
Press
MSL
hPa
Rain since
9am
mm
Dir  Spd
km/h
Gust
km/h
Spd
kts
Gust
kts
22/10:30am 30.9 32.3 22.8 62 5.6 WSW 20 28 11 15 1012.6 1009.6 0.0
22/10:00am 30.9 33.6 24.1 67 4.8 W 17 26 9 14 1012.7 1009.7 0.0
22/09:30am 30.7 33.5 23.6 66 5.0 W 15 22 8 12 1012.9 1009.9 0.0
22/09:00am 30.0 33.3 23.9 70 4.3 NW 13 19 7 10 1013.1 1010.1 0.0
22/08:30am 28.9 32.7 24.7 78 3.0 NW 13 17 7 9 1013.1 1010.1 0.0
22/08:00am 27.6 31.1 24.2 82 2.4 NNW 13 17 7 9 1013.2 1010.2 0.0
22/07:30am 26.4 29.7 23.9 86 1.7 N 13 17 7 9 1013.0 1010.0 0.0
22/07:00am 25.3 29.0 23.9 92 1.0 N 11 15 6 8 1012.7 1009.7 0.0
22/06:30am 24.3 28.1 23.4 95 0.6 NE 9 11 5 6 1012.4 1009.4 0.0
22/06:00am 24.3 28.0 23.3 94 0.7 NNE 9 13 5 7 1011.9 1009.0 0.0
22/05:30am 24.4 27.8 23.4 94 0.7 NNE 11 15 6 8 1011.4 1008.5 0.0
22/05:00am 24.5 28.1 23.1 92 1.0 NE 9 11 5 6 1011.2 1008.3 0.0
22/04:30am 24.4 27.8 22.7 90 1.2 NE 9 11 5 6 1011.1 1008.2 0.0
22/04:00am 24.8 27.8 22.7 88 1.4 ENE 11 13 6 7 1011.0 1008.1 0.0
22/03:30am 24.7 27.8 22.2 86 1.7 NE 9 11 5 6 1011.1 1008.2 0.0
22/03:00am 24.9 27.9 22.0 84 2.0 NE 9 11 5 6 1011.1 1008.2 0.0
22/02:30am 25.1 28.4 21.8 82 2.2 NE 7 9 4 5 1011.2 1008.3 0.0
22/02:00am 25.4 28.3 21.7 80 2.5 ENE 9 11 5 6 1011.5 1008.6 0.0
22/01:30am 25.5 28.0 21.8 80 2.5 NE 11 13 6 7 1011.8 1008.9 0.0
22/01:00am 25.7 29.1 21.6 78 2.8 NNE 6 9 3 5 1011.9 1009.0 0.0
22/12:30am 25.9 30.7 22.2 80 2.5 CALM 0 0 0 0 1011.9 1009.0 0.0
22/12:00am 25.5 28.9 22.0 81 2.4 NNW 7 9 4 5 1011.9 1009.0 0.0
 
Date/Time
CST
Temp
°C
App
Temp
°C
Dew
Point
°C
Rel
Hum
%
Delta-T
°C
Wind Press
QNH
hPa
Press
MSL
hPa
Rain since
9am
mm
Dir  Spd
km/h
Gust
km/h
Spd
kts
Gust
kts
21/11:30pm 25.5 28.5 21.2 77 2.9 NNE 7 9 4 5 1012.2 1009.2 0.0
21/11:00pm 25.3 27.7 20.8 76 3.0 ENE 9 11 5 6 1012.4 1009.4 0.0
21/10:30pm 25.1 26.7 20.8 77 2.9 ESE 13 17 7 9 1012.6 1009.6 0.0
21/10:00pm 25.4 25.6 20.6 75 3.2 ESE 20 28 11 15 1012.4 1009.4 0.0
21/09:30pm 25.9 24.6 21.3 76 3.1 SE 30 48 16 26 1012.8 1009.8 0.0
21/09:29pm 26.0 24.7 21.4 76 3.1 SE 30 48 16 26 1012.8 1009.8 0.0
21/09:18pm 27.4 29.6 21.9 72 3.7 SE 13 43 7 23 1012.8 1009.8 0.0
21/09:00pm 28.1 31.2 22.1 70 4.1 ESE 9 11 5 6 1012.2 1009.2 0.0
21/08:30pm 28.1 31.4 22.6 72 3.8 E 9 11 5 6 1011.7 1008.8 0.0
21/08:00pm 28.5 31.5 22.0 68 4.4 E 9 11 5 6 1011.1 1008.2 0.0
21/07:30pm 29.3 32.3 22.0 64 5.0 ENE 9 9 5 5 1010.5 1007.5 0.0
21/07:00pm 30.6 33.5 21.1 57 6.4 ENE 7 9 4 5 1009.8 1006.8 0.0
21/06:30pm 31.4 33.8 20.0 50 7.6 NE 7 11 4 6 1009.3 1006.3 0.0
21/06:00pm 32.1 34.0 19.7 48 8.3 N 9 13 5 7 1008.8 1005.9 0.0
21/05:30pm 32.3 34.1 19.5 46 8.5 N 9 11 5 6 1008.6 1005.7 0.0
21/05:00pm 32.9 34.4 19.7 45 8.8 E 11 19 6 10 1008.8 1005.9 0.0
21/04:30pm 32.8 33.2 18.2 42 9.6 E 13 17 7 9 1008.8 1005.9 0.0
21/04:00pm 32.9 34.6 20.1 47 8.6 ESE 11 19 6 10 1009.4 1006.4 0.0
21/03:30pm 32.7 34.2 20.6 49 8.2 E 13 19 7 10 1009.6 1006.6 0.0
21/03:00pm 32.8 35.3 21.0 50 8.0 ENE 9 15 5 8 1009.7 1006.7 0.0
21/02:30pm 32.9 - 20.8 49 8.2 - - - - - 1009.9 1006.9 0.0
21/02:00pm 32.7 35.1 20.9 49 8.0 SE 9 13 5 7 1010.4 1007.4 0.0
21/01:30pm 31.9 34.4 21.7 54 7.0 E 11 17 6 9 1010.9 1007.9 0.0
21/01:00pm 31.1 33.8 21.3 56 6.7 ENE 9 15 5 8 1011.3 1008.4 0.0
21/12:30pm 30.9 34.2 21.9 58 6.2 NNE 7 11 4 6 1011.8 1008.9 0.0
21/12:00pm 30.6 34.0 22.7 62 5.5 NNW 9 15 5 8 1012.2 1009.2 0.0
21/11:30am 29.7 32.8 22.9 67 4.7 NE 11 15 6 8 1012.7 1009.7 0.0
21/11:00am 29.2 32.2 22.7 68 4.5 NE 11 17 6 9 1013.0 1010.0 0.0
21/10:30am 28.6 31.4 22.3 68 4.3 NE 11 15 6 8 1013.2 1010.2 0.0
21/10:00am 28.0 30.7 22.2 70 4.0 NE 11 15 6 8 1013.4 1010.5 0.0
21/09:30am 27.0 29.9 22.4 76 3.1 NE 11 15 6 8 1013.4 1010.5 0.0
21/09:00am 26.1 28.7 22.0 78 2.8 NNE 11 13 6 7 1013.4 1010.5 0.0
21/08:30am 25.2 29.1 22.9 87 1.6 NNE 7 11 4 6 1013.1 1010.1 0.0
21/08:00am 24.5 27.6 22.8 90 1.2 NE 11 15 6 8 1012.7 1009.7 0.0
21/07:30am 23.9 27.6 23.2 96 0.5 E 9 11 5 6 1012.6 1009.6 0.0
21/07:00am 23.4 28.0 23.1 98 0.2 ENE 4 6 2 3 1012.2 1009.2 0.0
21/06:30am 23.2 26.7 22.9 98 0.2 NE 9 11 5 6 1011.7 1008.8 0.0
21/06:00am 23.2 27.2 22.7 97 0.3 NE 6 7 3 4 1011.6 1008.7 0.0
21/05:30am 23.3 26.9 23.0 98 0.2 NE 9 13 5 7 1011.5 1008.6 0.0
21/05:00am 23.1 26.4 22.6 97 0.3 ENE 9 11 5 6 1011.6 1008.7 0.0
21/04:30am 23.2 26.5 22.5 96 0.5 E 9 9 5 5 1011.5 1008.6 0.0
21/04:00am 23.2 26.8 22.4 95 0.5 ENE 7 7 4 4 1011.2 1008.3 0.0
21/03:30am 23.4 26.7 22.6 95 0.5 ENE 9 9 5 5 1010.9 1007.9 0.0
21/03:00am 23.5 27.2 22.5 94 0.7 ENE 7 9 4 5 1010.8 1007.8 0.0
21/02:30am 23.8 27.1 22.6 93 0.8 NE 9 13 5 7 1011.0 1008.1 0.0
21/02:00am 23.8 27.1 22.6 93 0.8 NNE 9 15 5 8 1011.2 1008.3 0.0
21/01:30am 24.1 27.0 22.5 91 1.1 NNE 11 15 6 8 1011.1 1008.2 0.0
21/01:00am 24.0 27.6 22.4 91 1.1 NNE 7 11 4 6 1011.4 1008.5 0.0
21/12:30am 24.5 27.7 22.4 88 1.4 NE 9 13 5 7 1011.5 1008.6 0.0
21/12:00am 24.5 27.5 22.6 89 1.3 NE 11 15 6 8 1011.8 1008.9 0.0
 
Date/Time
CST
Temp
°C
App
Temp
°C
Dew
Point
°C
Rel
Hum
%
Delta-T
°C
Wind Press
QNH
hPa
Press
MSL
hPa
Rain since
9am
mm
Dir  Spd
km/h
Gust
km/h
Spd
kts
Gust
kts
20/11:30pm 24.9 28.7 22.8 88 1.4 NE 7 9 4 5 1012.3 1009.3 0.0
20/11:00pm 24.8 28.7 23.0 90 1.2 NE 7 9 4 5 1012.5 1009.5 0.0
20/10:30pm 25.0 29.0 23.1 89 1.3 NE 7 9 4 5 1012.8 1009.8 0.0
20/10:00pm 25.3 28.6 23.2 88 1.4 N 11 13 6 7 1012.8 1009.8 0.0
20/09:30pm 25.7 29.4 23.2 86 1.7 NNE 9 11 5 6 1012.6 1009.6 0.0
20/09:00pm 26.1 29.0 23.2 84 2.0 NE 13 19 7 10 1012.2 1009.2 0.0
20/08:30pm 25.8 29.5 23.3 86 1.7 NE 9 11 5 6 1011.8 1008.9 0.0
20/08:00pm 26.1 30.5 23.4 85 1.9 E 6 7 3 4 1011.8 1008.9 0.0
20/07:30pm 26.2 29.6 22.7 81 2.4 ENE 9 11 5 6 1011.0 1008.1 0.0
20/07:00pm 26.5 29.2 22.8 80 2.5 ENE 13 15 7 8 1010.5 1007.5 0.0
20/06:30pm 26.9 29.7 22.3 76 3.1 ENE 11 15 6 8 1010.3 1007.3 0.0
20/06:00pm 27.3 29.7 22.3 74 3.4 NE 13 17 7 9 1009.9 1006.9 0.0
20/05:30pm 27.5 30.2 22.2 73 3.6 E 11 13 6 7 1009.8 1006.8 0.0
20/05:00pm 27.6 30.7 22.1 72 3.8 ESE 9 11 5 6 1009.9 1006.9 0.0
20/04:30pm 27.7 29.7 21.5 69 4.2 ESE 13 15 7 8 1009.8 1006.8 0.0
20/04:00pm 27.9 30.5 21.9 70 4.1 E 11 17 6 9 1009.9 1006.9 0.0
20/03:30pm 28.1 30.4 22.8 73 3.7 ENE 15 19 8 10 1010.3 1007.3 0.0
20/03:08pm 27.8 31.0 23.0 75 3.3 E 11 19 6 10 1010.6 1007.6 0.0
20/03:00pm 27.9 30.8 23.1 75 3.3 E 13 19 7 10 1010.7 1007.7 0.0
20/02:30pm 27.6 31.3 24.6 84 2.1 ESE 13 19 7 10 1011.1 1008.2 0.0
20/02:28pm 27.4 30.8 24.1 82 2.3 SE 13 19 7 10 1011.1 1008.2 0.0
20/02:00pm 27.9 31.4 23.5 77 3.1 E 11 15 6 8 1011.1 1008.2 0.0
20/01:36pm 27.8 32.1 24.2 81 2.5 NE 9 15 5 8 1011.5 1008.6 0.0
20/01:30pm 27.7 31.3 23.7 79 2.8 NE 11 15 6 8 1011.6 1008.7 0.0
20/01:23pm 27.5 31.1 23.7 80 2.6 NE 11 19 6 10 1011.6 1008.7 0.0
20/01:00pm 26.7 30.1 24.0 85 1.9 ENE 13 19 7 10 1012.2 1009.2 0.0
20/12:56pm 26.6 29.4 23.7 84 2.0 NE 15 19 8 10 1012.4 1009.4 0.0
20/12:30pm 27.7 30.6 23.9 80 2.7 NE 15 20 8 11 1012.8 1009.8 0.0
20/12:00pm 25.9 29.7 23.4 86 1.7 NE 9 13 5 7 1013.0 1010.0 0.0
20/11:30am 25.7 29.3 23.7 89 1.4 NE 11 15 6 8 1013.6 1010.7 0.0
20/11:00am 25.7 29.5 23.4 87 1.6 ENE 9 13 5 7 1013.8 1010.9 0.0
20/10:30am 25.5 29.3 23.4 88 1.4 NE 9 13 5 7 1013.8 1010.9 0.0
20/10:00am 25.0 28.3 23.2 90 1.2 NNE 11 15 6 8 1014.0 1011.1 0.0
20/09:30am 24.6 28.3 23.2 92 1.0 NNE 9 15 5 8 1014.0 1011.1 0.0
20/09:18am 24.3 27.4 22.9 92 1.0 E 11 15 6 8 1014.0 1011.1 0.0
20/09:00am 24.3 27.0 22.9 92 1.0 E 13 15 7 8 1013.8 1010.9 -
20/08:30am 24.2 26.4 22.6 91 1.1 ENE 15 19 8 10 1013.5 1010.6 -
20/08:00am 23.9 25.9 22.3 91 1.1 NE 15 20 8 11 1012.9 1009.9 -
20/07:30am 23.5 25.5 22.3 93 0.8 ENE 15 19 8 10 1012.5 1009.5 -
20/07:00am 23.1 25.3 21.9 93 0.8 E 13 17 7 9 1012.1 1009.1 -
20/06:30am 23.0 24.7 21.6 92 0.9 ESE 15 17 8 9 1011.9 1009.0 -
20/06:00am 23.1 25.2 21.7 92 0.9 E 13 19 7 10 1011.8 1008.9 -
20/05:30am 23.2 25.7 21.8 92 0.9 E 11 13 6 7 1011.5 1008.6 -
20/05:00am 23.2 26.1 21.8 92 0.9 E 9 13 5 7 1011.4 1008.5 -
20/04:30am 23.3 25.3 21.6 90 1.1 E 13 15 7 8 1010.9 1007.9 -
20/04:00am 23.4 25.4 21.5 89 1.3 E 13 17 7 9 1010.9 1007.9 -
20/03:30am 23.6 24.4 21.3 87 1.5 E 19 26 10 14 1010.6 1007.6 -
20/03:00am 23.7 24.3 21.0 85 1.8 E 19 26 10 14 1010.6 1007.6 -
20/02:30am 23.8 25.2 21.1 85 1.8 ENE 15 17 8 9 1010.3 1007.3 -
20/02:00am 23.5 24.7 21.4 88 1.4 ESE 17 24 9 13 1010.0 1007.0 -
20/01:30am 23.6 24.7 21.3 87 1.5 ESE 17 26 9 14 1010.6 1007.6 -
20/01:00am 23.8 25.6 21.9 89 1.3 SE 15 20 8 11 1011.2 1008.3 -
20/12:30am 24.0 25.4 21.9 88 1.4 ESE 17 20 9 11 1011.4 1008.5 -
20/12:00am 24.0 25.4 21.9 88 1.4 ESE 17 24 9 13 1011.5 1008.6 -
 
Date/Time
CST
Temp
°C
App
Temp
°C
Dew
Point
°C
Rel
Hum
%
Delta-T
°C
Wind Press
QNH
hPa
Press
MSL
hPa
Rain since
9am
mm
Dir  Spd
km/h
Gust
km/h
Spd
kts
Gust
kts
19/11:30pm 23.9 25.8 21.4 86 1.7 E 13 17 7 9 1011.8 1008.9 -
19/11:00pm 24.3 25.4 21.2 83 2.1 E 17 22 9 12 1012.3 1009.3 -
19/10:30pm 24.2 25.2 21.7 86 1.7 E 19 26 10 14 1012.6 1009.6 -
19/10:00pm 24.5 25.5 22.2 87 1.6 E 20 26 11 14 1012.6 1009.6 -
19/09:30pm 24.6 26.0 22.8 90 1.2 E 20 28 11 15 1012.5 1009.5 -
19/09:00pm 24.7 25.7 23.5 93 0.8 ESE 24 30 13 16 1012.1 1009.1 -
19/08:30pm 24.7 26.3 23.8 95 0.6 ESE 22 30 12 16 1011.9 1009.0 -
19/08:26pm 24.8 26.8 23.9 95 0.6 ESE 20 30 11 16 1012.1 1009.1 -
19/08:00pm 24.8 27.5 24.1 96 0.5 ESE 17 22 9 12 1011.7 1008.8 -
19/07:30pm 24.9 26.7 24.2 96 0.5 ESE 22 30 12 16 1011.2 1008.3 -
19/07:00pm 25.1 27.4 24.4 96 0.5 ESE 20 28 11 15 1011.4 1008.5 -
19/06:30pm 25.2 27.7 24.5 96 0.5 ESE 19 28 10 15 1011.1 1008.2 -
19/06:00pm 25.3 27.8 24.4 95 0.6 ESE 19 24 10 13 1010.7 1007.7 -
19/05:30pm 25.4 27.5 24.7 96 0.5 ESE 22 30 12 16 1010.2 1007.2 -
19/05:14pm 25.4 27.9 24.7 96 0.5 ESE 20 26 11 14 1010.3 1007.3 -
19/05:00pm 25.4 27.9 24.7 96 0.5 ESE 20 30 11 16 1010.5 1007.5 -
19/04:30pm 25.1 28.1 24.6 97 0.4 ESE 17 20 9 11 1010.7 1007.7 -
19/04:00pm 25.0 28.4 24.1 95 0.6 E 13 15 7 8 1011.1 1008.2 -
19/03:30pm 25.0 29.2 24.1 95 0.6 ENE 9 11 5 6 1011.3 1008.4 -
19/03:22pm 25.0 29.2 24.1 95 0.6 ENE 9 11 5 6 1011.3 1008.4 -
19/03:07pm 24.9 29.0 24.0 95 0.6 ENE 9 11 5 6 1011.6 1008.7 -
19/03:00pm 24.9 29.0 24.0 95 0.6 NE 9 11 5 6 1011.7 1008.8 -
19/02:30pm 24.7 28.0 23.8 95 0.6 NE 13 17 7 9 1012.2 1009.2 -
19/02:21pm 24.7 27.8 24.2 97 0.3 NNE 15 19 8 10 1012.4 1009.4 -
19/02:00pm 24.6 27.7 24.1 97 0.3 NNE 15 19 8 10 1012.7 1009.7 -
19/01:30pm 24.4 27.5 24.1 98 0.2 NE 15 20 8 11 1012.9 1009.9 -
19/01:28pm 24.4 27.5 24.1 98 0.2 NE 15 20 8 11 1013.0 1010.0 -
19/01:15pm 24.4 27.1 24.1 98 0.2 NE 17 24 9 13 1013.0 1010.0 -
19/01:00pm 24.3 27.0 24.1 99 0.1 NE 17 28 9 15 1013.1 1010.1 -
19/12:56pm 24.2 26.8 24.0 99 0.1 NE 17 28 9 15 1013.2 1010.2 -
19/12:30pm 24.1 26.6 23.8 98 0.2 NE 17 26 9 14 1013.6 1010.7 -
19/12:22pm 24.0 26.8 23.7 98 0.2 NE 15 24 8 13 1013.6 1010.7 -
19/12:00pm 23.9 26.2 23.4 97 0.3 NE 17 24 9 13 1013.7 1010.8 -
19/11:30am 23.8 26.3 23.1 96 0.5 NE 15 26 8 14 1013.8 1010.9 -
19/11:00am 23.4 24.2 23.1 98 0.2 NE 24 33 13 18 1014.0 1011.1 -

Other formats

Comma delimited format used in spreadsheet applications
http://www.bom.gov.au/fwo/IDD60801/IDD60801.94238.axf

JavaScript Object Notation format (JSON) in row-major order
http://www.bom.gov.au/fwo/IDD60801/IDD60801.94238.json

Data quality

Most of these data are generated automatically and are frequently updated. Quality checks on data are not normally performed. It is possible for incorrect values to appear. Refer to information at About Latest Weather Observations and please check the disclaimer before using these data.